Time;durP1;ratioP1;P1;durP2;ratioP2;P2;SDS_P1;SDS_P2;PMS_P1;PMS_P2;Temp;Humidity;BMP_temperature;BMP_pressure;BME280_temperature;BME280_humidity;BME280_pressure;Samples;Min_cycle;Max_cycle;Signal;HPM_P1;HPM_P2
2022/06/17 00:02:56;;;;;;;4.32;3.38;;;22.10;59.20;;;;;;10411675;28;20608;-58
2022/06/17 00:07:57;;;;;;;4.95;3.50;;;22.10;59.20;;;;;;10421306;28;20100;-58
2022/06/17 00:12:57;;;;;;;4.43;3.28;;;22.00;59.10;;;;;;10420884;28;20113;-58
2022/06/17 00:17:58;;;;;;;4.50;3.30;;;22.10;59.10;;;;;;10420903;28;20449;-57
2022/06/17 00:23:00;;;;;;;4.50;3.05;;;22.00;59.10;;;;;;10420889;28;20477;-58
2022/06/17 00:28:01;;;;;;;4.40;3.63;;;22.00;59.10;;;;;;10419217;28;20458;-58
2022/06/17 00:33:03;;;;;;;3.83;3.20;;;22.00;59.10;;;;;;10419001;28;20029;-58
2022/06/17 00:38:04;;;;;;;4.07;3.20;;;22.00;59.10;;;;;;10420192;28;20069;-58
2022/06/17 00:43:19;;;;;;;4.25;3.60;;;22.00;59.10;;;;;;10405585;28;20033;-58
2022/06/17 00:48:28;;;;;;;4.72;3.90;;;22.00;59.10;;;;;;10422126;28;20117;-58
2022/06/17 00:53:50;;;;;;;4.35;3.95;;;22.00;59.10;;;;;;10418464;28;20037;-58
2022/06/17 00:59:01;;;;;;;5.90;3.85;;;22.00;59.10;;;;;;10418248;28;20076;-58
2022/06/17 01:04:05;;;;;;;3.83;3.42;;;22.00;59.10;;;;;;10417889;28;20041;-58
2022/06/17 01:14:42;;;;;;;4.57;3.90;;;22.00;59.10;;;;;;10417485;28;20382;-58
2022/06/17 01:19:47;;;;;;;3.83;3.13;;;22.00;59.20;;;;;;10432200;28;20191;-58
2022/06/17 01:24:51;;;;;;;4.57;3.70;;;22.00;59.10;;;;;;10418468;28;20033;-58
2022/06/17 01:29:52;;;;;;;3.83;3.30;;;22.00;59.10;;;;;;10416733;28;20052;-58
2022/06/17 01:34:52;;;;;;;4.57;3.60;;;22.00;59.10;;;;;;10416548;28;20063;-58
2022/06/17 01:39:55;;;;;;;4.20;3.25;;;21.90;59.10;;;;;;10416586;28;20413;-58
2022/06/17 01:44:56;;;;;;;4.05;3.13;;;22.00;59.20;;;;;;10404302;28;20103;-58
2022/06/17 01:50:13;;;;;;;5.68;3.63;;;21.90;59.10;;;;;;10419945;28;20082;-58
2022/06/17 01:55:39;;;;;;;4.38;3.67;;;21.90;59.20;;;;;;10416249;28;20452;-57
2022/06/17 02:00:41;;;;;;;3.63;3.33;;;21.90;59.60;;;;;;10415963;28;20029;-58
2022/06/17 02:05:50;;;;;;;4.38;3.95;;;21.90;59.20;;;;;;10415890;28;20490;-58
2022/06/17 02:10:51;;;;;;;4.93;3.88;;;21.90;59.20;;;;;;10416313;28;20473;-58
2022/06/17 02:15:52;;;;;;;5.35;3.83;;;21.90;59.20;;;;;;10416470;28;20033;-58
2022/06/17 02:20:56;;;;;;;4.53;3.45;;;21.90;59.20;;;;;;10414857;28;20061;-58
2022/06/17 02:25:58;;;;;;;3.90;3.50;;;21.90;59.20;;;;;;10415764;28;20029;-58
2022/06/17 02:31:00;;;;;;;5.85;4.03;;;21.90;59.20;;;;;;10415544;28;20025;-58
2022/06/17 02:36:14;;;;;;;4.35;3.95;;;21.90;59.30;;;;;;10414248;28;20179;-58
2022/06/17 02:41:19;;;;;;;4.72;3.53;;;21.90;59.30;;;;;;10404580;28;20037;-58
2022/06/17 02:46:40;;;;;;;4.65;3.83;;;21.90;59.20;;;;;;10413160;28;20528;-59
2022/06/17 02:51:43;;;;;;;4.20;3.80;;;21.90;59.30;;;;;;10405531;28;20040;-58
2022/06/17 02:56:49;;;;;;;4.82;4.03;;;21.90;59.90;;;;;;10414526;28;20167;-58
2022/06/17 03:01:56;;;;;;;4.78;3.88;;;21.80;59.20;;;;;;10413408;28;20042;-58
2022/06/17 03:06:57;;;;;;;4.57;3.90;;;21.80;59.20;;;;;;10414133;28;20044;-58
2022/06/17 03:12:19;;;;;;;5.28;4.30;;;21.80;59.80;;;;;;10409547;28;20049;-58
2022/06/17 03:17:23;;;;;;;4.22;3.83;;;21.80;59.10;;;;;;10402740;28;20037;-58
2022/06/17 03:22:25;;;;;;;4.55;4.10;;;21.80;59.20;;;;;;10412954;28;20033;-58
2022/06/17 03:27:32;;;;;;;3.60;3.30;;;21.80;59.20;;;;;;10413680;28;20029;-58
2022/06/17 03:32:42;;;;;;;4.13;3.60;;;21.80;59.30;;;;;;10412564;28;20022;-58
2022/06/17 03:37:56;;;;;;;5.10;3.63;;;21.80;59.30;;;;;;10412700;28;20398;-58
2022/06/17 03:43:21;;;;;;;5.15;4.10;;;21.80;59.30;;;;;;10413323;28;20556;-58
2022/06/17 03:48:52;;;;;;;4.72;3.92;;;21.80;59.30;;;;;;10415086;28;20057;-58
2022/06/17 03:53:53;;;;;;;4.53;4.13;;;21.80;59.30;;;;;;10412179;28;20071;-58
2022/06/17 03:58:58;;;;;;;5.50;4.10;;;21.80;59.30;;;;;;10411237;28;20025;-58
2022/06/17 04:04:04;;;;;;;4.85;4.35;;;21.80;59.40;;;;;;10410638;28;20065;-58
2022/06/17 04:09:28;;;;;;;4.90;4.50;;;21.80;59.50;;;;;;10410742;28;20025;-58
2022/06/17 04:14:46;;;;;;;5.15;4.65;;;21.80;59.80;;;;;;10411726;28;20055;-58
2022/06/17 04:20:07;;;;;;;5.93;5.28;;;21.80;60.00;;;;;;10411470;28;20452;-58
2022/06/17 04:25:28;;;;;;;6.15;4.53;;;21.80;59.90;;;;;;10400219;28;20036;-58
2022/06/17 04:30:53;;;;;;;5.15;4.65;;;21.80;59.80;;;;;;10396778;28;20037;-58
2022/06/17 04:36:21;;;;;;;6.13;5.53;;;21.80;59.80;;;;;;10418904;28;20121;-58
2022/06/17 04:41:28;;;;;;;7.32;6.43;;;21.80;60.10;;;;;;10409728;28;20037;-58
2022/06/17 04:46:35;;;;;;;8.38;6.95;;;21.80;61.40;;;;;;10407289;28;20037;-58
2022/06/17 04:51:35;;;;;;;8.57;5.88;;;21.90;61.10;;;;;;10412857;28;20473;-57
2022/06/17 04:56:47;;;;;;;6.07;5.47;;;21.90;62.30;;;;;;10418792;28;20033;-58
2022/06/17 05:01:49;;;;;;;9.10;6.32;;;22.00;62.30;;;;;;10418095;28;20057;-56
2022/06/17 05:06:49;;;;;;;6.97;6.20;;;22.00;62.50;;;;;;10418439;28;20484;-58
2022/06/17 05:11:56;;;;;;;9.38;6.10;;;22.00;62.20;;;;;;10418170;28;20033;-57
2022/06/17 05:16:57;;;;;;;7.82;5.75;;;22.00;62.70;;;;;;10417430;28;20052;-58
2022/06/17 05:21:59;;;;;;;9.48;5.63;;;21.90;62.20;;;;;;10417415;28;20034;-58
2022/06/17 05:26:59;;;;;;;9.05;5.45;;;21.90;61.80;;;;;;10417239;28;20041;-57
2022/06/17 05:32:00;;;;;;;9.35;5.50;;;21.90;61.80;;;;;;10417424;28;20441;-58
2022/06/17 05:37:00;;;;;;;10.45;5.82;;;21.90;62.00;;;;;;10417050;28;20050;-58
2022/06/17 05:42:01;;;;;;;12.73;6.35;;;21.90;61.50;;;;;;10399796;28;20036;-58
2022/06/17 05:47:02;;;;;;;15.98;6.78;;;21.90;61.30;;;;;;10416447;28;20041;-58
2022/06/17 05:52:04;;;;;;;12.70;6.68;;;21.90;61.30;;;;;;10420224;28;20064;-58
2022/06/17 05:57:04;;;;;;;15.82;5.90;;;21.90;61.40;;;;;;10416102;28;20531;-58
2022/06/17 06:02:06;;;;;;;25.65;6.95;;;21.90;61.40;;;;;;10414750;28;20091;-62
2022/06/17 06:07:07;;;;;;;12.73;5.65;;;21.90;61.30;;;;;;10407320;28;20057;-58
2022/06/17 06:12:09;;;;;;;10.43;5.65;;;21.90;61.30;;;;;;10413685;28;20385;-59
2022/06/17 06:17:11;;;;;;;9.70;5.38;;;21.90;61.10;;;;;;10412070;28;20080;-60
2022/06/17 06:22:12;;;;;;;12.60;5.57;;;21.90;61.30;;;;;;10414031;28;20033;-61
2022/06/17 06:27:12;;;;;;;10.90;6.13;;;21.90;61.30;;;;;;10412236;28;20113;-61
2022/06/17 06:32:14;;;;;;;10.68;5.80;;;21.90;61.20;;;;;;10407718;28;20466;-60
2022/06/17 06:37:14;;;;;;;9.70;6.15;;;21.90;60.90;;;;;;10406842;28;20049;-59
2022/06/17 06:42:15;;;;;;;8.02;5.38;;;21.80;60.90;;;;;;10406212;28;20045;-60
2022/06/17 06:47:16;;;;;;;6.88;4.78;;;21.80;61.00;;;;;;10414674;28;20434;-60
2022/06/17 06:52:17;;;;;;;5.00;4.20;;;21.80;61.50;;;;;;10416832;28;20056;-60
2022/06/17 06:57:19;;;;;;;11.90;5.93;;;21.80;61.20;;;;;;10414163;28;20405;-60
2022/06/17 07:02:20;;;;;;;9.93;6.20;;;21.90;61.30;;;;;;10413519;28;20040;-57
2022/06/17 07:07:20;;;;;;;12.18;5.30;;;21.90;61.30;;;;;;10390268;28;20133;-61
2022/06/17 07:12:21;;;;;;;13.18;5.53;;;21.90;61.20;;;;;;10405741;28;20081;-61
2022/06/17 07:17:22;;;;;;;12.10;5.00;;;21.90;61.10;;;;;;10411493;28;20409;-60
2022/06/17 07:22:22;;;;;;;15.10;5.53;;;21.90;61.00;;;;;;10412271;28;20484;-61
2022/06/17 07:27:23;;;;;;;7.53;4.43;;;21.90;60.80;;;;;;10400153;28;20044;-60
2022/06/17 07:32:24;;;;;;;12.30;4.55;;;21.90;60.80;;;;;;10395334;28;20029;-60
2022/06/17 07:42:44;;;;;;;5.78;4.70;;;21.90;60.80;;;;;;10411157;28;20041;-58
2022/06/17 07:47:48;;;;;;;9.23;4.82;;;21.90;60.60;;;;;;10412351;28;20389;-59
2022/06/17 07:52:49;;;;;;;7.72;4.15;;;21.90;61.30;;;;;;10414503;28;20413;-59
2022/06/17 07:57:51;;;;;;;7.03;3.83;;;22.00;60.70;;;;;;10411368;28;20057;-58
2022/06/17 08:02:51;;;;;;;7.32;4.15;;;22.00;60.60;;;;;;10409109;28;20038;-58
2022/06/17 08:07:55;;;;;;;8.25;4.10;;;22.00;60.40;;;;;;10410553;28;20508;-58
2022/06/17 08:12:56;;;;;;;5.45;4.00;;;22.00;60.40;;;;;;10411658;28;20434;-57
2022/06/17 08:17:57;;;;;;;6.18;4.18;;;22.00;60.20;;;;;;10407660;28;20026;-58
2022/06/17 08:22:58;;;;;;;6.93;3.88;;;22.00;60.20;;;;;;10411967;28;20057;-58
2022/06/17 08:28:03;;;;;;;5.80;3.50;;;22.00;60.30;;;;;;10417805;28;20496;-58
2022/06/17 08:33:04;;;;;;;6.32;3.50;;;22.10;60.40;;;;;;10418805;28;20021;-58
2022/06/17 08:38:23;;;;;;;7.60;3.88;;;22.10;59.90;;;;;;10419456;28;20503;-57
2022/06/17 08:43:42;;;;;;;;;;;22.10;59.70;;;;;;10408987;28;20419;-58
2022/06/17 08:49:19;;;;;;;6.07;4.05;;;22.10;60.00;;;;;;10420176;28;19952;-59
2022/06/17 08:54:32;;;;;;;7.10;3.72;;;22.10;59.90;;;;;;10416995;28;20036;-58
2022/06/17 08:59:45;;;;;;;5.57;3.25;;;22.10;59.80;;;;;;10418709;28;20029;-59
2022/06/17 09:05:21;;;;;;;5.57;4.00;;;22.10;59.90;;;;;;10415313;28;20037;-58
2022/06/17 09:11:20;;;;;;;6.20;4.55;;;22.10;60.00;;;;;;10415894;28;20053;-60
2022/06/17 09:16:44;;;;;;;7.63;3.50;;;22.20;60.10;;;;;;10417872;28;20029;-59
2022/06/17 09:21:56;;;;;;;5.07;2.75;;;22.20;59.90;;;;;;10417624;28;20497;-58
2022/06/17 09:27:04;;;;;;;5.47;3.40;;;22.20;60.00;;;;;;10416773;28;20037;-58
2022/06/17 09:32:16;;;;;;;6.32;2.53;;;22.20;60.10;;;;;;10417640;28;20071;-59
2022/06/17 09:37:26;;;;;;;4.82;3.10;;;22.20;60.30;;;;;;10414458;28;20083;-59
2022/06/17 09:42:56;;;;;;;5.60;2.88;;;22.20;60.20;;;;;;10403999;28;20049;-59
2022/06/17 09:48:37;;;;;;;3.90;3.10;;;22.20;59.80;;;;;;10417432;28;20033;-59
2022/06/17 09:53:47;;;;;;;4.18;3.08;;;22.20;59.70;;;;;;10392964;28;20486;-59
2022/06/17 09:59:00;;;;;;;3.55;2.60;;;22.20;59.80;;;;;;10414733;28;20025;-57
2022/06/17 10:04:01;;;;;;;4.72;3.45;;;22.20;60.10;;;;;;10416182;28;20029;-58
2022/06/17 10:09:45;;;;;;;5.10;3.17;;;22.20;60.10;;;;;;10416354;28;20057;-58
2022/06/17 10:15:08;;;;;;;5.43;3.33;;;22.30;59.90;;;;;;10424628;28;20494;-59
2022/06/17 10:21:11;;;;;;;5.40;3.20;;;22.30;59.60;;;;;;10416115;28;20074;-59
2022/06/17 10:26:42;;;;;;;7.43;2.97;;;22.40;59.50;;;;;;10414310;28;20576;-58
2022/06/17 10:31:47;;;;;;;9.80;4.47;;;22.40;59.80;;;;;;10399587;28;20033;-59
2022/06/17 10:36:52;;;;;;;5.78;2.85;;;22.40;62.30;;;;;;10413796;28;20060;-59
2022/06/17 10:41:53;;;;;;;3.78;2.50;;;22.40;60.10;;;;;;10413404;28;20083;-59
2022/06/17 10:47:34;;;;;;;4.97;3.10;;;22.50;59.80;;;;;;10412472;28;20482;-60
2022/06/17 10:52:42;;;;;;;7.82;3.30;;;22.50;59.80;;;;;;10415440;28;20494;-60
2022/06/17 10:58:22;;;;;;;5.13;3.38;;;22.50;59.70;;;;;;10412369;28;20044;-60
2022/06/17 11:03:34;;;;;;;5.72;3.22;;;22.50;59.50;;;;;;10412979;28;20036;-58
2022/06/17 11:08:59;;;;;;;6.60;3.35;;;22.60;59.90;;;;;;10413166;28;20040;-60
2022/06/17 11:14:01;;;;;;;5.60;2.90;;;22.60;59.30;;;;;;10413566;28;20033;-59
2022/06/17 11:19:11;;;;;;;4.43;3.30;;;22.60;59.50;;;;;;10412362;28;20116;-59
2022/06/17 11:24:34;;;;;;;4.38;3.00;;;22.70;59.20;;;;;;10411449;28;20100;-59
2022/06/17 11:29:46;;;;;;;6.00;3.33;;;22.70;59.00;;;;;;10410696;28;20037;-58
2022/06/17 11:34:52;;;;;;;4.72;2.88;;;22.70;58.60;;;;;;10411846;28;20049;-59
2022/06/17 11:40:14;;;;;;;8.82;3.40;;;22.70;59.20;;;;;;10411638;28;20037;-58
2022/06/17 11:45:24;;;;;;;4.85;3.17;;;22.70;59.10;;;;;;10401981;28;20403;-58
2022/06/17 11:50:31;;;;;;;5.18;3.03;;;22.70;59.30;;;;;;10414786;28;20537;-59
2022/06/17 11:55:39;;;;;;;4.95;2.85;;;22.70;58.90;;;;;;10411353;28;20033;-58
2022/06/17 12:00:53;;;;;;;6.17;3.20;;;22.70;59.00;;;;;;10410304;28;20521;-59
2022/06/17 12:05:58;;;;;;;4.63;3.47;;;22.80;59.50;;;;;;10411159;28;20060;-58
2022/06/17 12:11:10;;;;;;;5.68;3.25;;;22.80;59.60;;;;;;10410644;28;20117;-58
2022/06/17 12:16:22;;;;;;;6.20;2.78;;;22.80;59.30;;;;;;10411627;28;20091;-59
2022/06/17 12:21:25;;;;;;;5.22;2.88;;;22.80;59.10;;;;;;10410413;28;20028;-58
2022/06/17 12:26:34;;;;;;;7.10;3.10;;;22.80;59.10;;;;;;10411427;28;20137;-59
2022/06/17 12:32:04;;;;;;;9.52;4.18;;;22.80;59.40;;;;;;10410285;28;20034;-58
2022/06/17 12:37:33;;;;;;;12.80;3.85;;;22.90;59.30;;;;;;10414249;28;20049;-59
2022/06/17 12:43:09;;;;;;;4.28;2.67;;;22.90;59.20;;;;;;10410695;28;20037;-59
2022/06/17 12:48:45;;;;;;;4.30;3.05;;;22.90;59.40;;;;;;10412325;28;20156;-60
2022/06/17 12:54:11;;;;;;;5.45;2.63;;;22.90;59.30;;;;;;10410271;28;20080;-59
2022/06/17 12:59:33;;;;;;;6.53;3.45;;;22.90;59.60;;;;;;10407871;28;20768;-60
2022/06/17 13:04:59;;;;;;;8.00;3.50;;;22.90;59.60;;;;;;10394410;28;20045;-61
2022/06/17 13:16:00;;;;;;;6.30;2.85;;;23.00;58.70;;;;;;10414296;28;20037;-60
2022/06/17 13:21:31;;;;;;;5.75;3.05;;;22.90;58.70;;;;;;10416596;28;20071;-61
2022/06/17 13:26:44;;;;;;;6.55;3.08;;;23.00;58.80;;;;;;10418344;28;20045;-61
2022/06/17 13:31:46;;;;;;;8.93;3.17;;;23.00;58.70;;;;;;10416618;28;20091;-60
2022/06/17 13:37:19;;;;;;;5.53;3.25;;;22.90;58.70;;;;;;10416912;28;20398;-61
2022/06/17 13:42:20;;;;;;;5.75;3.13;;;23.00;58.50;;;;;;10415846;28;20029;-60
2022/06/17 13:47:38;;;;;;;7.43;3.08;;;23.00;58.50;;;;;;10415096;28;20030;-60
2022/06/17 13:52:56;;;;;;;5.33;2.90;;;23.00;58.10;;;;;;10416721;28;20029;-59
2022/06/17 13:58:30;;;;;;;4.80;2.60;;;23.00;57.90;;;;;;10398445;28;20037;-61
2022/06/17 14:03:53;;;;;;;5.25;2.80;;;23.00;57.70;;;;;;10415223;28;20030;-62
2022/06/17 14:09:05;;;;;;;5.53;2.60;;;23.00;56.10;;;;;;10416067;28;20048;-61
2022/06/17 14:14:38;;;;;;;6.20;2.85;;;23.00;57.20;;;;;;10412707;28;20389;-61
2022/06/17 14:20:12;;;;;;;5.40;3.03;;;23.00;57.00;;;;;;10403446;28;20049;-59
2022/06/17 14:25:26;;;;;;;4.85;2.70;;;23.00;56.90;;;;;;10414433;28;20025;-57
2022/06/17 14:30:41;;;;;;;5.90;2.90;;;23.20;56.70;;;;;;10414539;28;20083;-56
2022/06/17 14:35:52;;;;;;;4.47;2.67;;;23.20;56.50;;;;;;10415598;28;20758;-57
2022/06/17 14:46:22;;;;;;;6.75;3.20;;;23.40;57.10;;;;;;10415426;28;20041;-58
2022/06/17 14:51:44;;;;;;;6.70;2.60;;;23.40;57.40;;;;;;10408639;28;20030;-57
2022/06/17 14:57:16;;;;;;;6.32;2.80;;;23.40;58.10;;;;;;10407953;28;20037;-58
2022/06/17 15:02:17;;;;;;;6.63;2.95;;;23.30;58.70;;;;;;10411412;28;20029;-59
2022/06/17 15:07:42;;;;;;;5.03;2.58;;;23.30;58.80;;;;;;10410669;28;20048;-60
2022/06/17 15:13:11;;;;;;;18.13;3.33;;;23.20;57.70;;;;;;10393663;28;20458;-63
2022/06/17 15:18:19;;;;;;;8.18;2.97;;;23.20;58.40;;;;;;10389843;28;20071;-60
2022/06/17 15:24:11;;;;;;;10.82;3.13;;;23.30;57.50;;;;;;10392491;28;20041;-60
2022/06/17 15:29:19;;;;;;;9.00;3.58;;;23.40;58.40;;;;;;10379113;28;20050;-58
2022/06/17 15:34:34;;;;;;;9.65;3.50;;;23.50;58.80;;;;;;10371574;28;20065;-61
2022/06/17 15:39:43;;;;;;;7.55;3.15;;;23.60;59.90;;;;;;10401062;28;20688;-61
2022/06/17 15:44:59;;;;;;;5.18;2.90;;;23.60;59.10;;;;;;10410258;28;20551;-60
2022/06/17 15:50:03;;;;;;;6.32;3.22;;;23.60;59.00;;;;;;10403981;28;20112;-59
2022/06/17 15:55:10;;;;;;;8.07;3.72;;;23.70;56.90;;;;;;10411245;28;20030;-60
2022/06/17 16:00:21;;;;;;;7.15;3.08;;;23.60;57.30;;;;;;10411993;28;20064;-60
2022/06/17 16:05:30;;;;;;;6.93;3.35;;;23.60;57.40;;;;;;10411877;28;20047;-60
2022/06/17 16:10:38;;;;;;;9.18;3.13;;;23.70;57.90;;;;;;10407709;28;20033;-59
2022/06/17 16:16:08;;;;;;;7.28;3.20;;;23.60;57.40;;;;;;10409380;28;20128;-60
2022/06/17 16:21:30;;;;;;;8.40;2.30;;;23.60;56.10;;;;;;10410779;28;20112;-59
2022/06/17 16:26:31;;;;;;;6.82;2.63;;;23.60;56.00;;;;;;10408862;28;20508;-58
2022/06/17 16:31:31;;;;;;;4.68;3.35;;;23.60;55.60;;;;;;10411153;28;20175;-58
2022/06/17 16:36:36;;;;;;;6.82;3.20;;;23.60;55.80;;;;;;10409519;28;20121;-62
2022/06/17 16:47:11;;;;;;;5.88;2.95;;;23.60;57.20;;;;;;10414151;28;20041;-59
2022/06/17 16:52:25;;;;;;;5.38;2.95;;;23.70;57.40;;;;;;10422733;28;20456;-60
2022/06/17 16:57:33;;;;;;;4.55;2.85;;;23.80;57.80;;;;;;10418871;28;20409;-59
2022/06/17 17:02:34;;;;;;;5.37;2.60;;;23.80;57.40;;;;;;10417179;28;20038;-59
2022/06/17 17:07:36;;;;;;;5.00;2.88;;;23.80;57.50;;;;;;10417595;28;20099;-59
2022/06/17 17:12:38;;;;;;;6.40;2.67;;;23.70;57.20;;;;;;10403011;28;20087;-60
2022/06/17 17:17:40;;;;;;;3.80;2.65;;;23.60;57.80;;;;;;10417522;28;20084;-59
2022/06/17 17:22:44;;;;;;;5.93;3.03;;;23.50;58.20;;;;;;10416662;28;20025;-59
2022/06/17 17:27:45;;;;;;;3.78;2.40;;;23.40;58.20;;;;;;10416451;28;20091;-60
2022/06/17 17:32:47;;;;;;;5.82;2.20;;;23.40;58.40;;;;;;10398996;28;20075;-59
2022/06/17 17:37:48;;;;;;;3.53;2.72;;;23.40;58.90;;;;;;10413978;28;20050;-59
2022/06/17 17:42:48;;;;;;;4.50;2.58;;;23.40;58.90;;;;;;10416947;28;20049;-58
2022/06/17 17:47:51;;;;;;;7.05;2.75;;;23.40;59.40;;;;;;10416071;28;20068;-59
2022/06/17 17:52:53;;;;;;;5.50;2.72;;;23.50;59.40;;;;;;10415482;28;20088;-59
2022/06/17 17:57:55;;;;;;;5.32;2.75;;;23.50;58.80;;;;;;10409866;28;20373;-58
2022/06/17 18:02:56;;;;;;;7.38;3.08;;;23.60;58.20;;;;;;10414247;28;20125;-59
2022/06/17 18:07:57;;;;;;;6.68;2.42;;;23.60;58.20;;;;;;10394211;28;20029;-58
2022/06/17 18:12:58;;;;;;;6.32;3.10;;;23.60;58.70;;;;;;10401863;28;20037;-59
2022/06/17 18:18:00;;;;;;;14.55;3.03;;;23.70;58.30;;;;;;10414838;28;20470;-59
2022/06/17 18:23:02;;;;;;;4.95;2.80;;;23.60;58.50;;;;;;10409952;28;20029;-59
2022/06/17 18:28:04;;;;;;;4.30;2.45;;;23.60;57.60;;;;;;10419652;28;20029;-59
2022/06/17 18:33:05;;;;;;;4.38;2.60;;;23.70;57.70;;;;;;10415062;28;20037;-59
2022/06/17 18:38:06;;;;;;;5.07;2.65;;;23.70;58.50;;;;;;10412832;28;20041;-60
2022/06/17 18:43:07;;;;;;;5.90;3.35;;;23.70;58.60;;;;;;10413299;28;20417;-59
2022/06/17 18:48:24;;;;;;;3.75;2.90;;;23.60;58.20;;;;;;10417873;28;20077;-60
2022/06/17 18:53:25;;;;;;;3.47;2.92;;;23.70;58.40;;;;;;10415563;28;20409;-60
2022/06/17 18:58:26;;;;;;;3.67;2.85;;;23.60;58.60;;;;;;10413568;28;20025;-59
2022/06/17 19:03:28;;;;;;;3.60;2.95;;;23.60;59.00;;;;;;10411991;28;20389;-59
2022/06/17 19:19:10;;;;;;;4.72;3.00;;;23.60;59.60;;;;;;10411795;28;20045;-59
2022/06/17 19:24:11;;;;;;;5.18;3.08;;;23.60;61.40;;;;;;10408805;28;20386;-60
2022/06/17 19:29:12;;;;;;;4.35;3.40;;;23.60;62.50;;;;;;10411280;28;20036;-60
2022/06/17 19:34:20;;;;;;;3.95;2.80;;;23.60;62.90;;;;;;10411948;28;20041;-60
2022/06/17 19:39:21;;;;;;;6.53;3.77;;;23.50;62.80;;;;;;10410611;28;20025;-59
2022/06/17 19:44:28;;;;;;;5.90;3.20;;;23.50;63.50;;;;;;10411596;28;20025;-59
2022/06/17 19:49:41;;;;;;;4.32;3.42;;;23.60;63.80;;;;;;10422367;28;20032;-59
2022/06/17 19:54:41;;;;;;;7.68;3.60;;;23.50;63.90;;;;;;10411325;28;20026;-59
2022/06/17 19:59:44;;;;;;;4.70;3.58;;;23.50;63.80;;;;;;10411357;28;20524;-59
2022/06/17 20:04:45;;;;;;;4.20;3.35;;;23.50;63.60;;;;;;10410694;28;20489;-60
2022/06/17 20:09:48;;;;;;;4.07;3.45;;;23.50;63.60;;;;;;10397463;28;20033;-59
2022/06/17 20:14:49;;;;;;;4.78;2.65;;;23.50;63.40;;;;;;10410633;28;20040;-59
2022/06/17 20:19:50;;;;;;;4.65;3.22;;;23.50;63.30;;;;;;10411410;28;20465;-59
2022/06/17 20:24:53;;;;;;;4.03;3.63;;;23.50;63.40;;;;;;10418341;28;20029;-60
2022/06/17 20:29:54;;;;;;;3.38;3.08;;;23.50;63.30;;;;;;10419028;28;20494;-58
2022/06/17 20:34:55;;;;;;;4.65;2.92;;;23.50;63.20;;;;;;10419373;28;20046;-59
2022/06/17 20:39:56;;;;;;;6.53;3.10;;;23.50;63.40;;;;;;10418058;28;20090;-59
2022/06/17 20:50:19;;;;;;;3.55;2.80;;;23.50;63.80;;;;;;10431047;28;20029;-58
2022/06/17 20:55:41;;;;;;;5.00;3.15;;;23.40;63.70;;;;;;10417974;28;20112;-59
2022/06/17 21:00:55;;;;;;;3.40;3.10;;;23.40;63.60;;;;;;10414772;28;20034;-59
2022/06/17 21:06:00;;;;;;;3.47;2.90;;;23.50;63.60;;;;;;10410871;28;20104;-60
2022/06/17 21:11:05;;;;;;;4.97;2.78;;;23.40;63.50;;;;;;10422728;28;20033;-59
2022/06/17 21:16:07;;;;;;;4.55;3.70;;;23.40;63.40;;;;;;10416670;28;20029;-59
2022/06/17 21:21:34;;;;;;;3.83;3.30;;;23.50;63.30;;;;;;10416545;28;20398;-59
2022/06/17 21:26:35;;;;;;;4.22;2.90;;;23.50;63.20;;;;;;10432269;28;20088;-59
2022/06/17 21:31:36;;;;;;;4.07;3.38;;;23.40;63.20;;;;;;10417656;28;20454;-59
2022/06/17 21:36:37;;;;;;;4.22;3.13;;;23.40;62.90;;;;;;10416485;28;20444;-58
2022/06/17 21:41:39;;;;;;;5.47;3.13;;;23.40;62.90;;;;;;10416822;28;20033;-59
2022/06/17 21:46:42;;;;;;;3.30;3.00;;;23.40;62.60;;;;;;10416384;28;20059;-58
2022/06/17 21:51:57;;;;;;;4.68;3.13;;;23.40;62.60;;;;;;10428333;28;20041;-59
2022/06/17 21:56:58;;;;;;;3.78;3.13;;;23.40;62.60;;;;;;10416057;28;20091;-59
2022/06/17 22:01:59;;;;;;;3.55;3.05;;;23.40;62.60;;;;;;10416228;28;20060;-58
2022/06/17 22:07:00;;;;;;;4.28;3.10;;;23.40;62.60;;;;;;10399386;28;20029;-58
2022/06/17 22:12:14;;;;;;;3.83;3.10;;;23.40;62.60;;;;;;10417070;28;20108;-59
2022/06/17 22:17:17;;;;;;;4.38;3.22;;;23.40;62.70;;;;;;10415683;28;20065;-58
2022/06/17 22:22:23;;;;;;;3.97;3.33;;;23.40;62.70;;;;;;10413979;28;20375;-59
2022/06/17 22:27:27;;;;;;;3.22;2.92;;;23.40;62.80;;;;;;10413524;28;20051;-59
2022/06/17 22:32:36;;;;;;;3.70;3.25;;;23.40;62.70;;;;;;10414468;28;20053;-58
2022/06/17 22:37:37;;;;;;;3.25;2.95;;;23.40;62.80;;;;;;10413814;28;20412;-58
2022/06/17 22:42:38;;;;;;;4.00;3.38;;;23.40;62.80;;;;;;10413554;28;20033;-59
2022/06/17 22:47:40;;;;;;;4.53;3.13;;;23.40;62.80;;;;;;10412790;28;20032;-58
2022/06/17 22:52:41;;;;;;;3.45;3.15;;;23.40;62.80;;;;;;10423920;28;20038;-59
2022/06/17 22:57:42;;;;;;;4.28;3.08;;;23.40;62.80;;;;;;10411826;28;20087;-59
2022/06/17 23:02:44;;;;;;;3.15;2.85;;;23.40;62.80;;;;;;10413300;28;20557;-59
2022/06/17 23:07:45;;;;;;;3.30;2.67;;;23.40;62.80;;;;;;10411569;28;20025;-59
2022/06/17 23:12:49;;;;;;;3.47;3.17;;;23.40;62.80;;;;;;10413196;28;20021;-58
2022/06/17 23:23:18;;;;;;;4.30;2.90;;;23.30;62.70;;;;;;10412941;28;20034;-59
2022/06/17 23:28:20;;;;;;;5.05;3.22;;;23.30;62.70;;;;;;10412067;28;20513;-58
2022/06/17 23:33:25;;;;;;;3.70;3.30;;;23.30;62.70;;;;;;10412037;28;20428;-59
2022/06/17 23:38:26;;;;;;;3.95;3.33;;;23.40;62.80;;;;;;10410152;28;20064;-59
2022/06/17 23:43:26;;;;;;;3.85;3.20;;;23.40;62.70;;;;;;10410457;28;20120;-59
2022/06/17 23:48:31;;;;;;;3.60;3.28;;;23.30;62.70;;;;;;10416228;28;20043;-58
2022/06/17 23:53:34;;;;;;;3.55;3.00;;;23.30;62.70;;;;;;10415700;28;20470;-59
2022/06/17 23:58:57;;;;;;;3.38;3.08;;;23.40;62.70;;;;;;10411031;28;20397;-59
